Flight Track Log - Related Links

Times and Time Zones

All times are in EDT time to prevent confusion due to time zone crossing. See the ASQ5958 flight status page for this flight to view local times or setup timezone preferences in your user account.

Time Position Orientation Groundspeed Altitude Reporting Facility
EDT Latitude Longitude Course Direction KTS MPH feet Rate Location/Type
Fri 04:20:15 PM 43.1086 -76.1006 87° East 150 173 1,000  Level Boston Center
Fri 04:21:03 PM 43.1103 -76.0494 87° East 170 196 2,700 1,927 Climbing Boston Center
Fri 04:22:04 PM 43.1603 -76.0469 North 261 300 4,500 2,083 Climbing Boston Center
Fri 04:23:04 PM 43.1553 -76.1406 266° West 274 315 6,900 2,281 Climbing Boston Center
Fri 04:24:05 PM 43.1686 -76.2439 280° West 285 328 9,100 1,382 Climbing Boston Center
Fri 04:25:36 PM 43.1961 -76.4222 282° West 301 346 10,400 1,232 Climbing Cleveland Center
Fri 04:26:36 PM 43.2197 -76.5575 284° West 338 389 12,200 1,750 Climbing Cleveland Center
Fri 04:27:36 PM 43.2408 -76.6900 282° West 356 410 13,900 1,700 Climbing Cleveland Center
Fri 04:28:36 PM 43.2642 -76.8225 284° West 356 410 15,600 1,650 Climbing Cleveland Center
Fri 04:29:36 PM 43.2850 -76.9553 282° West 361 415 17,200 1,500 Climbing Cleveland Center
Fri 04:30:36 PM 43.3056 -77.0856 282° West 361 415 18,600 1,550 Climbing Cleveland Center
Fri 04:31:36 PM 43.2803 -77.2153 255° West 347 399 20,300 1,600 Climbing Cleveland Center
Fri 04:32:36 PM 43.2611 -77.3475 259° West 347 399 21,800 1,500 Climbing Cleveland Center
Fri 04:33:36 PM 43.2567 -77.4875 268° West 358 412 23,300 1,450 Climbing Cleveland Center
Fri 04:34:36 PM 43.2561 -77.6272 270° West 370 426 24,700 1,400 Climbing Cleveland Center
Fri 04:35:36 PM 43.2533 -77.7669 268° West 370 426 26,100 1,450 Climbing Cleveland Center
Fri 04:36:36 PM 43.2503 -77.9039 268° West 370 426 27,600 1,450 Climbing Cleveland Center
Fri 04:37:36 PM 43.2472 -78.0439 268° West 370 426 29,000 1,350 Climbing Cleveland Center
Fri 04:38:36 PM 43.2439 -78.1808 268° West 365 420 30,300 1,150 Climbing Cleveland Center
Fri 04:39:36 PM 43.2406 -78.3175 268° West 365 420 31,300 850 Climbing Cleveland Center
Fri 04:40:36 PM 43.2369 -78.4603 268° West 370 426 32,000 750 Climbing Cleveland Center
Fri 04:41:36 PM 43.2311 -78.6114 267° West 383 441 32,800 900 Climbing Cleveland Center
Fri 04:42:36 PM 43.2294 -78.7625 269° West 395 455 33,800 600 Climbing Cleveland Center
Fri 04:43:36 PM 43.2236 -78.9167 267° West 400 460 34,000 103 Climbing Cleveland Center
Fri 04:44:33 PM 43.2167 -79.0333 265° West 420 483 34,000  Level Toronto Center
Fri 04:45:33 PM 43.2000 -79.2000 262° West 420 483 34,000  Level Toronto Center
Fri 04:46:33 PM 43.2000 -79.3667 270° West 420 483 34,000  Level Toronto Center
Fri 04:48:33 PM 43.1833 -79.6833 266° West 420 483 34,000  Level Toronto Center
Fri 04:49:33 PM 43.1833 -79.8333 270° West 420 483 34,000 250 Level Toronto Center
Fri 04:50:33 PM 43.1667 -80.0000 262° West 420 483 34,500 700 Climbing Toronto Center
Fri 04:51:33 PM 43.1667 -80.1667 270° West 410 472 35,400 750 Climbing Toronto Center
Fri 04:52:33 PM 43.1667 -80.3167 270° West 410 472 36,000 300 Climbing Toronto Center
Fri 04:53:33 PM 43.1500 -80.4833 262° West 420 483 36,000  Level Toronto Center
Fri 04:54:33 PM 43.1500 -80.6333 270° West 430 495 36,000  Level Toronto Center
Fri 04:55:33 PM 43.1500 -80.8000 270° West 430 495 36,000  Level Toronto Center
Fri 04:56:33 PM 43.1167 -80.9500 253° West 430 495 36,000  Level Toronto Center
Fri 04:57:33 PM 43.1167 -81.1167 270° West 430 495 36,000  Level Toronto Center
Fri 04:58:33 PM 43.1000 -81.3000 263° West 430 495 36,000  Level Toronto Center
Fri 04:59:33 PM 43.1000 -81.4333 270° West 420 483 36,000  Level Toronto Center
Fri 05:00:33 PM 43.1000 -81.6167 270° West 420 483 36,000  Level Toronto Center
Fri 05:01:33 PM 43.0833 -81.7500 260° West 420 483 36,000  Level Toronto Center
Fri 05:02:33 PM 43.0667 -81.9167 262° West 420 483 36,000  Level Toronto Center
Fri 05:03:33 PM 43.0667 -82.0833 270° West 410 472 36,000  Level Toronto Center
Fri 05:04:33 PM 43.0500 -82.2333 261° West 400 460 36,000  Level Toronto Center
Fri 05:05:33 PM 43.0500 -82.4000 270° West 410 472 36,000  Level Toronto Center
Fri 05:06:33 PM 43.0500 -82.5500 270° West 420 483 36,000 -44 Level Toronto Center
Fri 05:07:48 PM 43.0358 -82.7533 265° West 420 483 35,900 -489 Descending Cleveland Center
Fri 05:08:48 PM 43.0267 -82.9064 265° West 420 483 34,900 -950 Descending Cleveland Center
Fri 05:09:48 PM 43.0150 -83.0592 264° West 420 483 34,000 -1,000 Descending Cleveland Center
Fri 05:10:48 PM 43.0033 -83.2122 264° West 415 478 32,900 -1,000 Descending Cleveland Center
Fri 05:11:48 PM 42.9933 -83.3736 265° West 420 483 32,000 -450 Descending Cleveland Center
Fri 05:12:48 PM 42.9808 -83.5375 264° West 425 489 32,000  Level Cleveland Center
Fri 05:13:48 PM 42.9683 -83.7017 264° West 431 496 32,000  Level Cleveland Center
Fri 05:14:48 PM 42.9533 -83.8681 263° West 442 509 32,000  Level Cleveland Center
Fri 05:15:48 PM 42.9381 -84.0347 263° West 442 509 32,000  Level Cleveland Center
Fri 05:16:48 PM 42.9225 -84.2011 263° West 442 509 32,000  Level Cleveland Center
Fri 05:18:22 PM 42.8989 -84.4375 262° West 447 514 32,000  Level Chicago Center
Fri 05:19:24 PM 42.8817 -84.6047 262° West 447 514 32,000  Level Chicago Center
Fri 05:20:26 PM 42.8608 -84.8044 262° West 447 514 32,000  Level Chicago Center
Fri 05:21:28 PM 42.8436 -84.9706 262° West 445 512 32,000  Level Chicago Center
Fri 05:22:30 PM 42.8264 -85.1389 262° West 447 514 32,000  Level Chicago Center
Fri 05:23:32 PM 42.8081 -85.3058 262° West 448 516 32,000 -435 Level Chicago Center
Fri 05:24:34 PM 42.7892 -85.4739 261° West 448 516 31,100 -1,887 Descending Chicago Center
Fri 05:25:36 PM 42.7611 -85.6408 257° West 450 518 28,100 -2,661 Descending Chicago Center
Fri 05:26:38 PM 42.7308 -85.8061 256° West 448 516 25,600 -2,468 Descending Chicago Center
Fri 05:27:40 PM 42.6997 -85.9736 256° West 452 520 23,000 -2,565 Descending Chicago Center
Fri 05:28:42 PM 42.6656 -86.1622 256° West 433 498 20,300 -1,452 Descending Chicago Center
Fri 05:29:44 PM 42.6369 -86.3183 256° West 426 490 20,000 -290 Descending Chicago Center
Fri 05:30:46 PM 42.6083 -86.4669 255° West 411 473 19,700 -968 Descending Chicago Center
Fri 05:31:48 PM 42.5800 -86.6153 256° West 405 466 18,000 -1,597 Descending Chicago Center
Fri 05:32:50 PM 42.5528 -86.7644 256° West 407 468 16,400 -1,645 Descending Chicago Center
Fri 05:33:52 PM 42.5119 -86.9044 248° West 405 466 14,600 -1,790 Descending Chicago Center
Fri 05:34:54 PM 42.4753 -87.0369 249° West 384 442 12,700 -1,984 Descending Chicago Center
Fri 05:35:56 PM 42.4331 -87.1889 249° West 365 420 10,500 -1,355 Descending Chicago Center
Fri 05:36:58 PM 42.4017 -87.3086 250° West 342 394 9,900 -242 Descending Chicago Center
Fri 05:38:00 PM 42.3725 -87.4106 249° West 302 348 10,000 48 Climbing Chicago Center
Fri 05:39:02 PM 42.3433 -87.5156 249° West 301 346 10,000  Level Chicago Center
Fri 05:40:04 PM 42.2767 -87.5994 223° Southwest 276 318 10,000 -145 Level Chicago Center
Fri 05:41:06 PM 42.2158 -87.6664 219° Southwest 283 326 9,700 -629 Descending Chicago Center
Fri 05:42:08 PM 42.1558 -87.7264 217° Southwest 273 314 8,700 -983 Descending Chicago Center
Fri 05:43:02 PM 42.1000 -87.7833 217° Southwest 259 298 7,800 -842 Descending Chicago TRACON
Fri 05:44:02 PM 42.0833 -87.8833 257° West 287 330 7,100 -368 Descending Chicago TRACON
Fri 05:44:56 PM 42.0833 -87.9833 270° West 282 325 7,100 -250 Level Chicago TRACON
Fri 05:46:02 PM 42.0833 -88.0833 270° West 241 277 6,600 -714 Descending Chicago TRACON
Fri 05:47:02 PM 42.0833 -88.1667 270° West 235 270 5,600 -1,026 Descending Chicago TRACON
Fri 05:47:18 PM 42.0800 -88.1939 261° West 239 275 5,300 -1,000 Descending Chicago Center
Fri 05:48:20 PM 42.0739 -88.2836 265° West 241 277 4,300 -629 Descending Chicago Center
Fri 05:49:22 PM 42.0669 -88.3700 264° West 238 274 4,000 -145 Descending Chicago Center
Fri 05:50:24 PM 42.0397 -88.4242 236° Southwest 205 236 4,000  Level Chicago Center
Fri 05:51:26 PM 41.9964 -88.4242 180° South 170 196 4,000  Level Chicago Center
Fri 05:52:28 PM 41.9819 -88.3683 109° East 164 189 4,000  Level Chicago Center
Fri 05:53:30 PM 41.9822 -88.3089 90° East 161 185 4,000 -48 Level Chicago Center
Fri 05:54:32 PM 41.9822 -88.2475 90° East 163 188 3,900 -48 Descending Chicago Center
Fri 05:55:34 PM 41.9828 -88.1847 89° East 165 190 3,900 -194 Level Chicago Center
Fri 05:56:36 PM 41.9833 -88.1117 89° East 165 190 3,500 -434 Descending Chicago Center
Fri 05:56:57 PM 41.9833 -88.0833 90° East 167 192 3,300 -818 Descending Chicago TRACON
Fri 05:58:04 PM 41.9833 -88.0167 90° East 155 178 2,300 -767 Descending Chicago TRACON
Fri 05:59:10 PM 41.9833 -87.9667 90° East 123 142 1,600 -636 Descending Chicago TRACON

Login

Don't have an account? Register now (free) for customized features, flight alerts, and more!